Time;durP1;ratioP1;P1;durP2;ratioP2;P2;SDS_P1;SDS_P2;PMS_P1;PMS_P2;Temp;Humidity;BMP_temperature;BMP_pressure;BME280_temperature;BME280_humidity;BME280_pressure;Samples;Min_cycle;Max_cycle;Signal;HPM_P1;HPM_P2
2022/02/11 00:02:02;;;;;;;7.32;5.88;;;7.30;58.10;;;;;;4992102;28;20213;-74
2022/02/11 00:07:11;;;;;;;7.05;5.25;;;7.40;57.40;;;;;;4965506;28;20235;-73
2022/02/11 00:09:39;;;;;;;7.38;5.32;;;7.40;57.40;;;;;;4975124;28;20217;-74
2022/02/11 00:12:07;;;;;;;7.20;5.40;;;7.40;57.40;;;;;;4975750;28;20214;-74
2022/02/11 00:14:44;;;;;;;6.82;5.10;;;7.40;57.40;;;;;;4974116;28;20209;-74
2022/02/11 00:17:14;;;;;;;8.48;5.47;;;7.30;57.30;;;;;;4984489;28;20702;-74
2022/02/11 00:19:41;;;;;;;7.35;5.63;;;7.30;57.30;;;;;;5004930;28;20229;-75
2022/02/11 00:22:08;;;;;;;7.68;5.70;;;7.20;57.20;;;;;;4994322;28;20292;-77
2022/02/11 00:24:34;;;;;;;6.57;5.20;;;7.20;57.20;;;;;;4995068;28;20228;-75
2022/02/11 00:27:24;;;;;;;8.80;6.13;;;7.20;57.20;;;;;;4992938;28;20221;-75
2022/02/11 00:32:54;;;;;;;6.75;5.15;;;7.10;57.10;;;;;;4903448;29;20215;-75
2022/02/11 00:35:28;;;;;;;10.18;5.80;;;7.20;55.50;;;;;;4960612;28;20211;-76
2022/02/11 00:37:56;;;;;;;6.72;4.50;;;7.20;54.90;;;;;;4989598;28;20236;-75
2022/02/11 00:40:42;;;;;;;8.93;5.22;;;7.20;53.60;;;;;;4994831;28;20246;-75
2022/02/11 00:44:00;;;;;;;9.07;5.30;;;7.20;53.20;;;;;;4992747;28;20215;-76
2022/02/11 00:46:24;;;;;;;6.28;5.20;;;7.30;52.60;;;;;;4995404;28;20293;-75
2022/02/11 01:02:44;;;;;;;5.88;4.65;;;7.30;53.30;;;;;;4994447;28;20221;-76
2022/02/11 01:05:11;;;;;;;6.18;4.88;;;7.30;53.50;;;;;;4997740;28;20386;-77
2022/02/11 01:07:38;;;;;;;6.07;4.75;;;7.30;53.80;;;;;;4989234;28;20219;-76
2022/02/11 01:10:05;;;;;;;7.15;5.00;;;7.30;53.90;;;;;;4992424;28;20230;-76
2022/02/11 01:12:32;;;;;;;6.40;4.93;;;7.30;54.00;;;;;;5006024;28;20230;-74
2022/02/11 01:14:59;;;;;;;6.80;5.38;;;7.30;54.20;;;;;;5002340;28;20301;-77
2022/02/11 01:17:33;;;;;;;6.57;5.47;;;7.30;54.30;;;;;;4995952;28;20725;-77
2022/02/11 01:20:07;;;;;;;7.65;4.50;;;7.30;54.50;;;;;;4977583;28;20563;-76
2022/02/11 01:22:51;;;;;;;8.10;5.63;;;7.20;54.60;;;;;;4989736;28;20297;-76
2022/02/11 01:25:45;;;;;;;5.97;4.65;;;7.20;54.90;;;;;;4999525;28;20233;-76
2022/02/11 01:28:19;;;;;;;6.10;5.05;;;7.20;55.20;;;;;;4983147;28;20207;-77
2022/02/11 01:31:02;;;;;;;8.98;5.25;;;7.20;55.60;;;;;;4981354;28;20213;-76
2022/02/11 01:36:29;;;;;;;6.00;5.00;;;7.10;57.10;;;;;;4994915;28;20313;-74
2022/02/11 01:39:23;;;;;;;8.18;5.25;;;7.10;57.10;;;;;;4996246;28;20277;-73
2022/02/11 01:47:58;;;;;;;7.60;6.07;;;6.90;61.70;;;;;;4976488;28;20320;-72
2022/02/11 01:50:42;;;;;;;7.90;5.90;;;6.80;64.60;;;;;;4994634;28;20209;-75
2022/02/11 01:53:19;;;;;;;10.20;6.93;;;6.60;67.20;;;;;;5005747;28;20237;-76
2022/02/11 02:13:15;;;;;;;14.55;8.52;;;6.10;86.40;;;;;;4944121;28;20233;-74
2022/02/11 02:19:04;;;;;;;10.23;6.85;;;6.00;90.20;;;;;;4981428;28;20205;-75
2022/02/11 02:27:18;;;;;;;9.75;7.28;;;5.90;92.80;;;;;;4984686;28;20585;-74
2022/02/11 02:38:31;;;;;;;13.93;8.45;;;5.80;95.80;;;;;;4940803;28;20207;-74
2022/02/11 02:57:42;;;;;;;1.30;1.00;;;4.60;91.20;;;;;;4993212;28;20634;-73
2022/02/11 03:17:16;;;;;;;1.48;0.85;;;3.90;98.30;;;;;;4992810;28;20291;-74
2022/02/11 04:23:29;;;;;;;3.90;1.23;;;4.20;99.90;;;;;;4981200;28;20212;-73
2022/02/11 04:56:37;;;;;;;4.18;1.70;;;4.30;91.30;;;;;;4996783;28;20228;-74
2022/02/11 05:01:48;;;;;;;2.08;1.85;;;4.40;91.30;;;;;;4958539;29;20282;-75
2022/02/11 05:04:15;;;;;;;2.30;1.85;;;4.40;91.30;;;;;;4961428;29;20650;-75
2022/02/11 05:06:42;;;;;;;2.15;1.75;;;4.40;90.10;;;;;;5007040;28;20276;-73
2022/02/11 05:09:09;;;;;;;1.90;1.80;;;4.30;89.40;;;;;;5007802;28;20255;-75
2022/02/11 05:11:37;;;;;;;2.38;1.63;;;4.20;89.60;;;;;;4997111;28;20215;-75
2022/02/11 05:14:05;;;;;;;1.70;1.60;;;4.20;89.00;;;;;;4978919;28;20296;-74
2022/02/11 05:16:32;;;;;;;4.93;2.13;;;4.20;87.40;;;;;;4976226;28;20226;-73
2022/02/11 05:18:59;;;;;;;2.25;1.70;;;4.10;86.50;;;;;;4992031;28;20208;-75
2022/02/11 05:21:26;;;;;;;2.38;1.60;;;4.10;86.20;;;;;;4994101;28;20302;-75
2022/02/11 05:23:53;;;;;;;1.50;1.40;;;4.10;86.90;;;;;;4996250;28;20212;-75
2022/02/11 05:26:20;;;;;;;1.98;1.70;;;4.10;86.80;;;;;;4986129;28;20226;-75
2022/02/11 05:28:48;;;;;;;1.90;1.40;;;4.10;86.80;;;;;;4977026;28;20221;-74
2022/02/11 05:31:15;;;;;;;2.72;1.70;;;4.10;87.30;;;;;;4977903;28;20305;-74
2022/02/11 05:33:42;;;;;;;2.05;1.85;;;4.00;87.50;;;;;;4977306;28;20205;-75
2022/02/11 05:36:09;;;;;;;1.30;1.30;;;4.00;88.60;;;;;;4984104;28;20256;-75
2022/02/11 05:38:36;;;;;;;1.70;1.60;;;3.90;88.70;;;;;;4994253;28;20221;-75
2022/02/11 05:41:04;;;;;;;1.67;1.58;;;3.90;89.10;;;;;;4975771;28;20213;-75
2022/02/11 05:43:31;;;;;;;2.05;1.67;;;3.80;90.10;;;;;;4977621;28;20201;-74
2022/02/11 05:45:59;;;;;;;4.53;1.92;;;3.70;91.10;;;;;;4977142;28;20251;-75
2022/02/11 05:48:26;;;;;;;3.42;2.20;;;3.70;91.10;;;;;;4996465;28;20200;-76
2022/02/11 05:50:52;;;;;;;2.00;1.90;;;3.60;91.60;;;;;;4997221;28;20268;-76
2022/02/11 05:53:19;;;;;;;1.88;1.70;;;3.50;92.40;;;;;;4984454;28;20304;-75
2022/02/11 05:55:46;;;;;;;2.45;2.00;;;3.50;92.80;;;;;;4977667;28;20312;-75
2022/02/11 05:58:13;;;;;;;2.00;1.80;;;3.50;93.70;;;;;;4993245;28;20688;-74
2022/02/11 06:00:40;;;;;;;2.53;2.17;;;3.40;94.30;;;;;;4997063;28;20208;-74
2022/02/11 06:03:08;;;;;;;1.92;1.83;;;3.40;94.90;;;;;;4981869;28;20206;-74
2022/02/11 06:05:35;;;;;;;2.97;2.08;;;3.30;95.40;;;;;;4976543;28;20713;-74
2022/02/11 06:08:02;;;;;;;3.55;2.20;;;3.40;95.90;;;;;;4992166;28;20275;-74
2022/02/11 06:10:29;;;;;;;3.25;2.33;;;3.40;96.30;;;;;;4998824;28;20208;-74
2022/02/11 06:12:55;;;;;;;2.45;2.25;;;3.30;96.30;;;;;;4988909;28;20287;-74
2022/02/11 06:15:24;;;;;;;2.78;2.30;;;3.30;96.30;;;;;;4980982;28;20542;-73
2022/02/11 06:17:50;;;;;;;3.67;2.60;;;3.30;96.10;;;;;;4980952;28;20627;-71
2022/02/11 06:20:23;;;;;;;2.85;2.45;;;3.20;95.80;;;;;;4976325;28;20220;-72
2022/02/11 06:22:50;;;;;;;2.42;2.20;;;3.10;95.70;;;;;;4975630;28;20285;-72
2022/02/11 06:25:17;;;;;;;6.32;3.97;;;3.10;96.50;;;;;;4975311;28;20240;-72
2022/02/11 06:27:43;;;;;;;5.13;2.60;;;3.10;95.70;;;;;;4975878;28;20205;-73
2022/02/11 06:30:12;;;;;;;2.83;2.45;;;3.10;95.60;;;;;;4975495;28;20223;-74
2022/02/11 06:32:39;;;;;;;3.60;2.60;;;3.10;95.30;;;;;;4976923;28;20209;-71
2022/02/11 06:35:08;;;;;;;4.93;2.67;;;3.00;95.60;;;;;;4979883;28;20728;-73
2022/02/11 06:37:36;;;;;;;3.10;2.70;;;3.00;95.50;;;;;;4975476;28;20224;-72
2022/02/11 06:40:04;;;;;;;3.75;2.00;;;3.00;95.50;;;;;;4975012;28;20264;-72
2022/02/11 06:42:31;;;;;;;4.03;2.70;;;3.00;95.80;;;;;;4974975;28;20213;-72
2022/02/11 06:44:58;;;;;;;3.08;2.30;;;2.90;95.30;;;;;;4975116;28;20229;-71
2022/02/11 06:47:25;;;;;;;5.15;2.70;;;2.90;95.20;;;;;;4975342;28;20248;-77
2022/02/11 06:49:52;;;;;;;5.57;3.40;;;2.90;95.00;;;;;;4975247;28;20261;-74
2022/02/11 06:52:19;;;;;;;6.07;2.53;;;2.90;94.40;;;;;;4975525;28;20240;-72
2022/02/11 06:54:47;;;;;;;5.03;3.70;;;3.00;94.40;;;;;;4980887;28;20220;-75
2022/02/11 06:57:14;;;;;;;4.72;3.90;;;3.00;93.50;;;;;;4996276;28;20736;-74
2022/02/11 06:59:41;;;;;;;4.57;3.15;;;3.10;92.80;;;;;;4995362;28;20205;-74
2022/02/11 07:02:16;;;;;;;8.65;3.30;;;3.10;92.40;;;;;;4976622;28;20233;-75
2022/02/11 07:04:43;;;;;;;4.18;2.97;;;3.10;92.10;;;;;;4996607;28;20219;-75
2022/02/11 07:07:10;;;;;;;4.60;3.13;;;3.00;91.90;;;;;;4995886;28;20251;-76
2022/02/11 07:09:37;;;;;;;3.92;3.03;;;3.00;91.50;;;;;;4995223;28;20291;-75
2022/02/11 07:12:07;;;;;;;5.88;3.58;;;3.00;91.30;;;;;;4995529;28;20642;-74
2022/02/11 07:14:34;;;;;;;6.30;3.88;;;3.00;91.60;;;;;;4993520;28;20201;-75
2022/02/11 07:17:01;;;;;;;5.90;4.18;;;3.00;91.60;;;;;;4979652;28;20725;-75
2022/02/11 07:19:30;;;;;;;4.95;4.30;;;3.10;91.80;;;;;;4977024;28;20209;-76
2022/02/11 07:22:00;;;;;;;5.75;3.75;;;3.20;92.10;;;;;;4980978;28;20209;-75
2022/02/11 07:24:27;;;;;;;4.18;3.78;;;3.40;91.50;;;;;;4984974;28;20209;-76
2022/02/11 07:26:55;;;;;;;10.55;4.30;;;3.50;90.60;;;;;;4985635;28;20710;-75
2022/02/11 07:29:23;;;;;;;5.68;4.00;;;3.60;88.70;;;;;;4993451;28;20292;-75
2022/02/11 07:31:50;;;;;;;6.88;4.85;;;3.60;86.80;;;;;;4985011;28;20205;-75
2022/02/11 07:34:18;;;;;;;7.47;3.80;;;3.70;85.60;;;;;;4989745;28;20513;-74
2022/02/11 07:36:45;;;;;;;6.93;4.43;;;3.70;84.50;;;;;;4981388;28;20256;-76
2022/02/11 07:39:13;;;;;;;6.40;4.13;;;3.80;84.60;;;;;;4979542;28;20213;-75
2022/02/11 07:41:40;;;;;;;5.80;3.80;;;3.80;83.20;;;;;;4975247;28;20297;-76
2022/02/11 07:44:07;;;;;;;4.78;3.10;;;3.80;81.20;;;;;;4982894;28;20313;-73
2022/02/11 07:46:36;;;;;;;8.63;3.83;;;3.90;80.50;;;;;;5001574;28;20277;-73
2022/02/11 07:49:03;;;;;;;7.78;3.72;;;3.90;79.60;;;;;;4993450;28;20204;-74
2022/02/11 07:51:30;;;;;;;5.57;4.07;;;3.80;78.90;;;;;;4992927;28;20561;-74
2022/02/11 07:53:58;;;;;;;10.40;3.50;;;3.70;80.10;;;;;;4993690;28;20208;-76
2022/02/11 07:56:25;;;;;;;4.25;3.35;;;3.70;80.20;;;;;;4993143;28;20220;-74
2022/02/11 07:58:52;;;;;;;5.35;3.22;;;3.60;80.00;;;;;;4992550;28;20296;-74
2022/02/11 08:01:20;;;;;;;9.88;4.65;;;3.60;80.20;;;;;;4995542;28;20259;-73
2022/02/11 08:03:50;;;;;;;3.70;3.40;;;3.60;80.20;;;;;;4995657;28;20266;-73
2022/02/11 08:06:17;;;;;;;6.82;4.40;;;3.50;80.20;;;;;;4997093;28;20236;-74
2022/02/11 08:08:44;;;;;;;6.18;3.70;;;3.60;80.20;;;;;;4995406;28;20610;-73
2022/02/11 08:11:11;;;;;;;6.55;3.75;;;3.60;80.30;;;;;;4976050;28;20213;-76
2022/02/11 08:13:39;;;;;;;4.65;3.50;;;3.60;80.10;;;;;;4976999;28;20220;-76
2022/02/11 08:16:06;;;;;;;4.85;3.90;;;3.60;80.00;;;;;;4996289;28;20311;-74
2022/02/11 08:18:33;;;;;;;3.97;3.30;;;3.70;79.60;;;;;;4997608;28;20649;-77
2022/02/11 08:21:03;;;;;;;5.40;4.15;;;3.70;79.00;;;;;;4999360;28;20239;-73
2022/02/11 08:23:29;;;;;;;7.20;4.20;;;3.70;79.00;;;;;;4999659;28;20260;-74
2022/02/11 08:25:57;;;;;;;8.68;5.13;;;3.80;79.30;;;;;;4998945;28;20232;-73
2022/02/11 08:28:24;;;;;;;5.32;4.38;;;3.80;79.20;;;;;;5000263;28;20217;-76
2022/02/11 08:30:51;;;;;;;6.50;4.90;;;3.90;79.60;;;;;;4996420;28;20275;-75
2022/02/11 08:33:23;;;;;;;9.30;4.72;;;3.90;79.80;;;;;;5003070;28;20208;-76
2022/02/11 08:36:07;;;;;;;6.38;4.03;;;3.90;80.00;;;;;;5004897;28;20225;-76
2022/02/11 08:38:36;;;;;;;11.68;4.80;;;4.00;79.20;;;;;;5005475;28;20209;-76
2022/02/11 08:41:05;;;;;;;8.80;6.60;;;4.10;78.50;;;;;;5002366;28;20250;-72
2022/02/11 08:43:32;;;;;;;7.28;5.65;;;4.20;77.10;;;;;;4993021;28;20235;-73
2022/02/11 08:45:58;;;;;;;7.38;5.20;;;4.20;74.60;;;;;;4975766;28;20308;-73
2022/02/11 08:48:25;;;;;;;7.65;4.50;;;4.30;73.00;;;;;;4973235;28;20209;-76
2022/02/11 08:50:52;;;;;;;8.15;4.78;;;4.30;72.40;;;;;;4985752;28;20312;-73
2022/02/11 08:53:22;;;;;;;11.85;5.75;;;4.40;72.50;;;;;;4989945;28;20472;-77
2022/02/11 08:55:51;;;;;;;8.85;4.85;;;4.50;71.30;;;;;;4981166;28;20665;-74
2022/02/11 08:58:19;;;;;;;9.52;5.75;;;4.60;70.60;;;;;;4991419;28;20213;-75
2022/02/11 09:00:47;;;;;;;7.68;4.97;;;4.90;68.60;;;;;;4990993;28;20209;-73
2022/02/11 09:03:14;;;;;;;7.85;5.32;;;5.20;66.80;;;;;;4990868;28;20728;-75
2022/02/11 09:05:41;;;;;;;7.30;5.25;;;5.40;64.60;;;;;;4992494;28;20237;-72
2022/02/11 09:08:09;;;;;;;11.63;5.32;;;5.40;63.30;;;;;;4992601;28;20220;-73
2022/02/11 09:10:36;;;;;;;6.80;5.30;;;5.50;63.40;;;;;;4987412;28;20198;-72
2022/02/11 09:13:05;;;;;;;11.45;5.40;;;5.40;62.90;;;;;;4973545;28;20214;-71
2022/02/11 09:15:32;;;;;;;8.52;5.75;;;5.40;62.40;;;;;;4973209;28;20257;-72
2022/02/11 09:17:59;;;;;;;7.28;6.00;;;5.40;62.10;;;;;;4973598;28;20209;-73
2022/02/11 09:20:26;;;;;;;9.05;5.28;;;5.40;62.00;;;;;;4973338;28;20220;-73
2022/02/11 09:22:54;;;;;;;11.10;5.72;;;5.40;62.50;;;;;;4973621;28;20202;-73
2022/02/11 09:25:22;;;;;;;8.13;5.93;;;5.40;62.00;;;;;;4975481;28;20210;-72
2022/02/11 09:27:49;;;;;;;9.25;5.18;;;5.40;62.50;;;;;;4976016;28;20210;-72
2022/02/11 09:30:20;;;;;;;6.45;4.60;;;5.40;62.10;;;;;;4977803;28;20301;-72
2022/02/11 09:32:49;;;;;;;8.73;6.10;;;5.40;61.30;;;;;;4980548;28;20211;-72
2022/02/11 09:35:17;;;;;;;9.80;5.10;;;5.50;61.30;;;;;;4978726;28;20209;-71
2022/02/11 09:37:44;;;;;;;6.38;4.72;;;5.50;60.30;;;;;;4978813;28;20216;-72
2022/02/11 09:40:14;;;;;;;6.63;5.05;;;5.50;59.60;;;;;;4978073;28;20367;-72
2022/02/11 09:42:41;;;;;;;9.02;5.20;;;5.50;59.00;;;;;;4985826;28;20300;-72
2022/02/11 09:45:10;;;;;;;8.10;5.57;;;5.50;59.10;;;;;;4996270;28;20217;-74
2022/02/11 09:47:39;;;;;;;9.43;4.45;;;5.50;59.40;;;;;;4987435;28;20254;-77
2022/02/11 09:50:07;;;;;;;10.55;5.38;;;5.60;58.90;;;;;;4985812;28;20226;-73
2022/02/11 09:52:38;;;;;;;9.18;5.28;;;5.70;59.00;;;;;;4986442;28;20296;-76
2022/02/11 09:57:49;;;;;;;9.00;4.40;;;6.20;57.30;;;;;;4999379;28;20648;-74
2022/02/11 10:00:17;;;;;;;7.93;4.60;;;6.50;56.60;;;;;;4995793;28;20292;-76
2022/02/11 10:02:52;;;;;;;10.82;5.82;;;6.70;54.90;;;;;;4994758;28;20654;-75
2022/02/11 10:05:23;;;;;;;8.43;5.25;;;6.90;53.90;;;;;;4995554;28;20284;-75
2022/02/11 10:07:51;;;;;;;8.55;5.00;;;6.90;53.60;;;;;;4994599;28;20232;-75
2022/02/11 10:10:38;;;;;;;11.75;5.22;;;6.90;53.80;;;;;;4994866;28;20213;-74
2022/02/11 10:13:06;;;;;;;8.65;5.35;;;6.80;53.10;;;;;;4994833;28;20254;-78
2022/02/11 10:15:34;;;;;;;13.25;5.60;;;6.70;53.70;;;;;;5004321;28;20693;-78
2022/02/11 10:18:02;;;;;;;7.60;5.10;;;6.70;54.20;;;;;;5000116;28;20206;-78
2022/02/11 10:20:32;;;;;;;10.00;5.28;;;6.60;53.70;;;;;;5004409;28;20615;-75
2022/02/11 10:23:17;;;;;;;10.07;6.20;;;6.50;54.00;;;;;;4997659;28;20643;-75
2022/02/11 10:26:13;;;;;;;6.57;5.72;;;6.40;54.70;;;;;;4994941;28;20228;-77
2022/02/11 10:28:43;;;;;;;7.43;4.68;;;6.40;55.30;;;;;;4950367;28;20330;-75
2022/02/11 10:31:15;;;;;;;11.40;4.97;;;6.40;54.40;;;;;;4994746;28;20221;-74
2022/02/11 10:33:56;;;;;;;5.90;5.00;;;6.20;55.20;;;;;;4995565;28;20253;-79
2022/02/11 10:36:25;;;;;;;14.07;4.95;;;6.10;55.30;;;;;;4996057;28;20240;-78
2022/02/11 10:39:10;;;;;;;9.70;5.60;;;6.10;56.30;;;;;;4995929;28;20240;-74
2022/02/11 10:41:40;;;;;;;7.45;4.75;;;6.10;56.00;;;;;;4994358;28;20243;-76
2022/02/11 10:44:09;;;;;;;7.72;5.40;;;6.10;56.30;;;;;;4995584;28;20273;-75
2022/02/11 10:46:38;;;;;;;7.13;4.43;;;6.30;56.50;;;;;;4996774;28;20238;-75
2022/02/11 10:49:07;;;;;;;6.50;4.97;;;6.30;55.60;;;;;;4997556;28;20208;-74
2022/02/11 10:51:38;;;;;;;10.98;5.05;;;6.40;54.90;;;;;;4997155;28;20610;-75
2022/02/11 10:54:26;;;;;;;8.52;4.57;;;6.40;55.40;;;;;;5000325;28;20677;-76
2022/02/11 10:56:54;;;;;;;9.50;5.25;;;6.40;54.90;;;;;;5002245;28;20224;-77
2022/02/11 10:59:25;;;;;;;8.70;4.65;;;6.60;54.00;;;;;;4998617;28;20210;-77
2022/02/11 11:01:53;;;;;;;13.27;5.03;;;6.60;54.00;;;;;;4999022;28;20678;-75
2022/02/11 11:04:21;;;;;;;8.07;5.22;;;6.60;54.30;;;;;;4997267;28;20300;-76
2022/02/11 11:06:48;;;;;;;6.50;5.57;;;6.70;53.90;;;;;;4994091;28;20244;-76
2022/02/11 11:09:17;;;;;;;6.97;4.38;;;6.90;53.80;;;;;;4996585;28;20214;-77
2022/02/11 11:11:45;;;;;;;8.35;5.10;;;6.90;53.60;;;;;;4999992;28;20214;-79
2022/02/11 11:14:14;;;;;;;8.60;4.88;;;6.90;53.10;;;;;;5003672;28;20687;-77
2022/02/11 11:16:42;;;;;;;6.68;4.40;;;7.00;53.00;;;;;;5010409;28;20223;-77
2022/02/11 11:19:10;;;;;;;5.55;4.50;;;7.00;52.40;;;;;;5011897;28;20210;-77
2022/02/11 11:21:42;;;;;;;4.85;4.35;;;6.90;52.30;;;;;;5000996;28;20650;-77
2022/02/11 11:24:10;;;;;;;6.88;4.30;;;6.70;53.40;;;;;;5002694;28;20273;-76
2022/02/11 11:26:42;;;;;;;9.98;4.93;;;6.60;53.00;;;;;;5005051;28;20223;-76
2022/02/11 11:29:15;;;;;;;7.50;4.53;;;6.60;53.30;;;;;;5010845;28;20213;-75
2022/02/11 11:31:53;;;;;;;7.63;4.80;;;6.40;53.20;;;;;;5004555;28;20310;-76
2022/02/11 11:34:31;;;;;;;6.00;4.60;;;6.40;53.00;;;;;;5000217;28;20657;-76
2022/02/11 11:37:07;;;;;;;12.25;4.70;;;6.40;53.30;;;;;;4998125;28;20264;-76
2022/02/11 11:39:35;;;;;;;4.47;4.05;;;6.30;53.10;;;;;;4997244;28;20205;-76
2022/02/11 11:42:08;;;;;;;4.70;4.00;;;6.40;53.00;;;;;;4999455;28;20237;-76
2022/02/11 11:44:47;;;;;;;5.78;4.07;;;6.40;52.90;;;;;;5001017;28;20283;-77
2022/02/11 11:47:24;;;;;;;5.53;4.15;;;6.50;51.90;;;;;;5000917;28;20275;-77
2022/02/11 11:49:51;;;;;;;8.48;3.70;;;6.50;51.90;;;;;;5002668;28;20213;-77
2022/02/11 11:52:22;;;;;;;17.35;4.95;;;6.60;51.60;;;;;;5003716;28;20220;-76
2022/02/11 11:54:49;;;;;;;9.93;4.35;;;6.50;51.50;;;;;;5006488;28;20208;-79
2022/02/11 11:57:18;;;;;;;7.53;3.75;;;6.50;51.90;;;;;;5004657;28;20232;-76
2022/02/11 11:59:47;;;;;;;5.35;4.13;;;6.50;51.90;;;;;;5000533;28;20277;-80
2022/02/11 12:02:17;;;;;;;8.30;4.20;;;6.50;51.90;;;;;;4995665;28;20210;-77
2022/02/11 12:05:03;;;;;;;6.75;3.97;;;6.50;51.90;;;;;;4994770;28;20204;-77
2022/02/11 12:07:34;;;;;;;5.78;4.30;;;6.60;52.00;;;;;;4994579;28;20236;-77
2022/02/11 12:10:05;;;;;;;7.20;4.22;;;6.70;52.10;;;;;;4994917;28;20224;-76
2022/02/11 12:12:33;;;;;;;6.53;4.05;;;6.60;51.00;;;;;;4994994;28;20220;-75
2022/02/11 12:15:02;;;;;;;8.40;5.13;;;6.70;51.20;;;;;;4994871;28;20249;-75
2022/02/11 12:17:30;;;;;;;11.60;4.10;;;6.70;51.10;;;;;;4996020;28;20236;-77
2022/02/11 12:19:58;;;;;;;8.38;4.72;;;6.80;51.30;;;;;;5005844;28;20298;-76
2022/02/11 12:22:26;;;;;;;6.68;3.80;;;6.90;51.00;;;;;;5007172;28;20226;-77
2022/02/11 12:27:43;;;;;;;5.00;4.50;;;7.00;49.90;;;;;;4996317;28;20232;-77
2022/02/11 12:30:14;;;;;;;5.40;4.35;;;7.00;50.00;;;;;;4994894;28;20213;-76
2022/02/11 12:32:44;;;;;;;5.07;3.75;;;6.90;50.50;;;;;;4995162;28;20214;-78
2022/02/11 12:35:12;;;;;;;6.88;4.10;;;7.20;50.40;;;;;;4991457;28;20355;-77
2022/02/11 12:37:41;;;;;;;7.93;3.78;;;7.30;49.70;;;;;;4976394;28;20205;-77
2022/02/11 12:40:12;;;;;;;4.30;3.75;;;7.20;49.60;;;;;;4979786;28;20203;-77
2022/02/11 12:42:42;;;;;;;11.43;4.70;;;7.30;49.90;;;;;;4976121;28;20257;-76
2022/02/11 12:45:11;;;;;;;7.35;4.45;;;7.30;49.70;;;;;;4998655;28;20220;-77
2022/02/11 12:47:40;;;;;;;8.23;5.25;;;7.20;49.60;;;;;;4999608;28;20284;-76
2022/02/11 12:50:10;;;;;;;6.63;4.32;;;7.20;50.30;;;;;;4979014;28;20262;-76
2022/02/11 12:52:38;;;;;;;6.93;4.25;;;7.00;50.40;;;;;;4977231;28;20210;-74
2022/02/11 12:55:12;;;;;;;4.85;3.92;;;6.90;51.00;;;;;;4996124;28;20292;-76
2022/02/11 12:57:44;;;;;;;6.93;4.22;;;6.80;51.70;;;;;;4995370;28;20193;-73
2022/02/11 13:00:15;;;;;;;4.75;4.28;;;6.70;51.70;;;;;;4980082;28;20294;-75
2022/02/11 13:02:44;;;;;;;9.30;4.78;;;6.60;51.80;;;;;;4980191;28;21030;-75
2022/02/11 13:05:14;;;;;;;5.25;3.80;;;6.60;52.00;;;;;;4979081;28;20639;-76
2022/02/11 13:07:42;;;;;;;4.28;3.83;;;6.70;52.10;;;;;;4981264;28;20280;-77
2022/02/11 13:10:18;;;;;;;6.85;4.35;;;6.80;51.80;;;;;;4999175;28;20634;-77
2022/02/11 13:12:46;;;;;;;7.07;4.47;;;6.70;52.10;;;;;;4999351;28;20238;-75
2022/02/11 13:15:15;;;;;;;7.43;3.85;;;6.90;51.40;;;;;;4999484;28;20687;-74
2022/02/11 13:17:42;;;;;;;6.38;4.15;;;6.90;50.90;;;;;;5002829;28;20265;-76
2022/02/11 13:20:13;;;;;;;8.80;3.70;;;7.00;51.20;;;;;;5005140;28;20224;-78
2022/02/11 13:22:42;;;;;;;7.18;4.05;;;7.10;51.10;;;;;;5009090;28;20212;-77
2022/02/11 13:25:12;;;;;;;6.00;3.80;;;7.20;50.20;;;;;;5008371;28;20247;-76
2022/02/11 13:27:41;;;;;;;7.18;4.10;;;7.30;50.10;;;;;;5000503;28;20317;-75
2022/02/11 13:30:10;;;;;;;8.10;3.92;;;7.30;50.00;;;;;;4999219;28;20675;-74
2022/02/11 13:32:36;;;;;;;5.15;3.00;;;7.20;50.00;;;;;;5008974;28;20213;-75
2022/02/11 13:35:05;;;;;;;7.07;3.25;;;7.10;48.20;;;;;;4994552;28;20268;-78
2022/02/11 13:37:41;;;;;;;6.00;3.10;;;7.00;47.60;;;;;;4985468;28;20203;-77
2022/02/11 13:40:20;;;;;;;7.57;2.78;;;7.10;47.70;;;;;;5000239;28;20205;-77
2022/02/11 13:42:56;;;;;;;2.85;2.20;;;7.10;46.30;;;;;;5000679;28;20766;-77
2022/02/11 13:45:23;;;;;;;6.15;2.97;;;7.20;44.40;;;;;;4959720;28;20308;-79
2022/02/11 13:48:02;;;;;;;5.78;2.95;;;7.40;43.10;;;;;;4976673;28;20257;-77
2022/02/11 13:50:30;;;;;;;5.13;2.83;;;7.60;43.30;;;;;;4974446;28;20207;-74
2022/02/11 13:53:03;;;;;;;6.18;2.67;;;7.60;42.20;;;;;;4992530;28;20218;-77
2022/02/11 13:55:32;;;;;;;4.10;2.60;;;7.70;42.80;;;;;;5001500;28;20631;-78
2022/02/11 13:58:16;;;;;;;5.32;2.75;;;7.80;42.70;;;;;;4994409;28;20201;-76
2022/02/11 14:00:44;;;;;;;5.47;2.75;;;7.80;43.10;;;;;;4991202;28;20228;-77
2022/02/11 14:03:23;;;;;;;4.07;2.88;;;8.00;43.60;;;;;;4983702;28;20833;-76
2022/02/11 14:05:51;;;;;;;4.32;2.70;;;7.90;43.60;;;;;;4996175;28;20307;-78
2022/02/11 14:08:19;;;;;;;6.13;3.13;;;7.70;43.80;;;;;;4989777;28;20608;-77
2022/02/11 14:10:49;;;;;;;10.07;3.72;;;7.70;44.30;;;;;;4984932;28;20218;-76
2022/02/11 14:13:16;;;;;;;3.92;3.20;;;7.70;43.80;;;;;;4984652;28;20215;-75
2022/02/11 14:15:44;;;;;;;8.75;3.45;;;7.80;44.00;;;;;;4982887;28;20238;-76
2022/02/11 14:18:12;;;;;;;5.03;3.20;;;7.80;43.50;;;;;;4995218;28;20240;-77
2022/02/11 14:20:39;;;;;;;4.68;3.30;;;7.90;43.60;;;;;;4998379;28;20564;-77
2022/02/11 14:23:13;;;;;;;7.85;3.35;;;7.90;44.10;;;;;;4998696;28;20213;-76
2022/02/11 14:25:42;;;;;;;6.90;3.45;;;7.90;43.60;;;;;;5005275;28;20226;-76
2022/02/11 14:28:11;;;;;;;5.35;3.28;;;8.00;43.40;;;;;;4984511;28;20592;-77
2022/02/11 14:30:39;;;;;;;4.10;2.60;;;7.80;43.20;;;;;;4977942;28;20238;-77
2022/02/11 14:33:07;;;;;;;3.17;2.67;;;7.80;42.90;;;;;;4978727;28;20201;-76
2022/02/11 14:35:34;;;;;;;5.10;2.85;;;7.90;42.80;;;;;;4984972;28;20259;-77
2022/02/11 14:38:01;;;;;;;4.05;2.20;;;8.00;42.60;;;;;;4986321;28;20274;-78
2022/02/11 14:40:28;;;;;;;5.32;2.60;;;8.10;41.80;;;;;;4980546;28;20207;-77
2022/02/11 14:42:55;;;;;;;3.20;2.42;;;8.20;40.30;;;;;;4982845;28;20220;-80
2022/02/11 14:45:24;;;;;;;8.82;2.70;;;8.20;40.70;;;;;;4983192;28;20387;-78
2022/02/11 14:47:51;;;;;;;8.02;2.55;;;8.20;39.70;;;;;;4981179;28;20614;-77
2022/02/11 14:50:17;;;;;;;4.85;3.33;;;8.10;40.20;;;;;;4982067;28;20286;-76
2022/02/11 14:52:44;;;;;;;6.03;2.38;;;8.10;40.20;;;;;;4976860;28;20680;-78
2022/02/11 14:55:13;;;;;;;4.75;2.35;;;8.00;39.50;;;;;;4979443;28;20209;-78
2022/02/11 14:57:40;;;;;;;5.53;2.75;;;8.00;40.20;;;;;;4987441;28;20292;-77
2022/02/11 15:00:08;;;;;;;4.07;2.88;;;8.00;40.20;;;;;;5003945;28;20249;-79
2022/02/11 15:02:36;;;;;;;6.13;2.72;;;7.90;40.90;;;;;;5004694;28;20291;-77
2022/02/11 15:05:04;;;;;;;6.72;2.90;;;7.90;41.50;;;;;;5006443;28;20265;-77
2022/02/11 15:07:31;;;;;;;3.67;2.45;;;7.80;41.90;;;;;;5006742;28;20239;-79
2022/02/11 15:09:58;;;;;;;6.85;2.78;;;7.80;42.50;;;;;;5011200;28;20225;-78
2022/02/11 15:12:25;;;;;;;5.18;3.22;;;7.70;42.60;;;;;;5000671;28;20587;-78
2022/02/11 15:14:52;;;;;;;8.20;3.20;;;7.60;43.30;;;;;;4983955;28;20226;-77
2022/02/11 15:17:19;;;;;;;5.82;2.97;;;7.60;43.30;;;;;;4985544;28;20253;-78
2022/02/11 15:19:47;;;;;;;7.65;3.33;;;7.60;44.10;;;;;;4999194;28;20215;-77
2022/02/11 15:22:15;;;;;;;6.25;2.80;;;7.60;44.20;;;;;;4995396;28;20273;-77
2022/02/11 15:24:48;;;;;;;2.80;2.53;;;7.50;44.20;;;;;;4986532;28;20241;-77
2022/02/11 15:27:16;;;;;;;4.78;2.67;;;7.40;44.60;;;;;;4985768;28;20219;-76
2022/02/11 15:29:43;;;;;;;4.70;2.92;;;7.40;44.20;;;;;;4990875;28;20452;-76
2022/02/11 15:32:10;;;;;;;5.00;3.05;;;7.40;45.40;;;;;;4995266;28;20262;-75
2022/02/11 15:34:38;;;;;;;4.18;3.15;;;7.30;45.30;;;;;;4988448;28;20232;-79
2022/02/11 15:37:06;;;;;;;6.78;2.72;;;7.30;44.60;;;;;;4984112;28;20242;-78
2022/02/11 15:39:34;;;;;;;3.88;2.50;;;7.20;44.30;;;;;;4987121;28;20278;-78
2022/02/11 15:42:02;;;;;;;4.07;2.33;;;7.20;44.00;;;;;;4989884;28;20218;-77
2022/02/11 15:44:29;;;;;;;3.40;2.60;;;7.20;43.90;;;;;;4987958;28;20206;-75
2022/02/11 15:46:55;;;;;;;4.20;2.20;;;7.10;45.40;;;;;;4991622;28;20229;-77
2022/02/11 15:49:22;;;;;;;3.88;2.60;;;7.10;45.20;;;;;;4990409;28;20235;-76
2022/02/11 15:51:49;;;;;;;4.82;2.47;;;7.00;46.10;;;;;;4989552;28;20205;-77
2022/02/11 15:54:18;;;;;;;7.35;2.50;;;6.90;45.50;;;;;;4982455;28;20817;-77
2022/02/11 15:56:45;;;;;;;2.55;1.95;;;6.90;46.30;;;;;;4977521;28;20316;-78
2022/02/11 15:59:11;;;;;;;6.40;2.67;;;6.90;46.80;;;;;;4977568;28;20208;-78
2022/02/11 16:01:38;;;;;;;6.75;3.33;;;6.80;45.60;;;;;;4977293;28;20215;-75
2022/02/11 16:04:06;;;;;;;5.43;2.67;;;6.90;45.40;;;;;;4980552;28;20293;-77
2022/02/11 16:06:33;;;;;;;5.13;2.45;;;6.80;44.10;;;;;;4993005;28;20233;-76
2022/02/11 16:09:00;;;;;;;3.20;2.45;;;6.80;45.20;;;;;;4980119;28;20226;-76
2022/02/11 16:11:28;;;;;;;4.60;2.53;;;6.80;46.20;;;;;;4974139;28;20302;-76
2022/02/11 16:13:55;;;;;;;4.45;3.20;;;6.70;48.10;;;;;;4974473;28;20214;-75
2022/02/11 16:16:22;;;;;;;8.52;2.35;;;6.60;47.30;;;;;;4977998;28;20757;-77
2022/02/11 16:18:49;;;;;;;4.35;2.10;;;6.50;47.20;;;;;;4980338;28;20206;-76
2022/02/11 16:21:16;;;;;;;7.10;2.22;;;6.40;47.10;;;;;;4998695;28;20296;-76
2022/02/11 16:23:43;;;;;;;4.28;2.30;;;6.20;47.80;;;;;;5007282;28;20213;-77
2022/02/11 16:26:10;;;;;;;6.32;3.30;;;6.10;48.50;;;;;;5005828;28;20248;-76
2022/02/11 16:28:39;;;;;;;4.45;2.95;;;6.10;49.50;;;;;;4994836;28;20244;-77